Time;durP1;ratioP1;P1;durP2;ratioP2;P2;SDS_P1;SDS_P2;PMS_P1;PMS_P2;Temp;Humidity;BMP_temperature;BMP_pressure;BME280_temperature;BME280_humidity;BME280_pressure;Samples;Min_cycle;Max_cycle;Signal;HPM_P1;HPM_P2
2022/01/18 00:00:40;;;;;;;5.47;3.30;;;5.20;99.90;;;;;;5083198;28;20271;-57
2022/01/18 00:03:07;;;;;;;5.77;3.50;;;5.40;99.90;;;;;;5081962;28;20194;-56
2022/01/18 00:05:34;;;;;;;7.23;3.00;;;5.50;99.90;;;;;;5076894;28;20275;-57
2022/01/18 00:08:01;;;;;;;4.87;3.40;;;5.30;99.90;;;;;;5081474;28;21050;-57
2022/01/18 00:10:31;;;;;;;4.93;3.60;;;5.40;99.90;;;;;;5082244;28;20789;-57
2022/01/18 00:16:08;;;;;;;6.70;3.60;;;5.40;99.90;;;;;;5081337;28;20564;-58
2022/01/18 00:18:36;;;;;;;3.93;2.90;;;5.50;99.90;;;;;;5082331;28;20276;-54
2022/01/18 00:23:53;;;;;;;4.07;2.70;;;5.40;99.90;;;;;;5081113;28;20661;-57
2022/01/18 00:26:21;;;;;;;3.83;2.80;;;5.40;99.90;;;;;;5081616;28;20218;-58
2022/01/18 00:28:53;;;;;;;2.97;2.67;;;5.40;99.90;;;;;;5082496;28;21090;-58
2022/01/18 00:34:17;;;;;;;2.87;2.53;;;5.50;99.90;;;;;;5083678;28;20245;-57
2022/01/18 00:39:14;;;;;;;4.83;3.40;;;5.50;99.90;;;;;;5080384;28;20725;-56
2022/01/18 00:41:41;;;;;;;3.33;2.67;;;5.60;99.90;;;;;;5079281;28;20324;-57
2022/01/18 00:44:08;;;;;;;3.90;2.73;;;5.50;99.90;;;;;;5079894;28;20329;-55
2022/01/18 00:46:36;;;;;;;5.93;3.07;;;5.70;99.90;;;;;;5079861;28;20216;-56
2022/01/18 00:49:04;;;;;;;5.83;3.37;;;5.80;99.90;;;;;;5079440;28;20707;-56
2022/01/18 00:51:36;;;;;;;3.70;2.67;;;5.70;99.90;;;;;;5081852;28;20298;-57
2022/01/18 00:54:05;;;;;;;6.13;2.90;;;5.40;99.90;;;;;;5080910;28;20285;-56
2022/01/18 00:56:32;;;;;;;5.00;2.63;;;5.20;99.90;;;;;;5080615;28;20625;-56
2022/01/18 00:59:00;;;;;;;5.60;2.60;;;5.30;99.90;;;;;;5082697;28;20552;-56
2022/01/18 01:01:29;;;;;;;8.13;3.20;;;5.30;99.90;;;;;;5081148;28;20723;-57
2022/01/18 01:04:01;;;;;;;7.80;3.80;;;5.60;99.90;;;;;;5080073;28;20199;-55
2022/01/18 01:06:28;;;;;;;5.03;2.87;;;5.60;99.90;;;;;;5075888;28;20737;-58
2022/01/18 01:08:55;;;;;;;6.33;3.33;;;5.40;99.90;;;;;;5079941;28;20301;-57
2022/01/18 01:11:23;;;;;;;5.93;3.43;;;5.20;99.90;;;;;;5080942;28;20232;-56
2022/01/18 01:13:53;;;;;;;7.23;3.70;;;5.20;99.90;;;;;;5081265;28;20207;-56
2022/01/18 01:35:13;;;;;;;4.13;3.40;;;5.80;99.90;;;;;;5082465;28;20268;-57
2022/01/18 01:45:42;;;;;;;7.17;4.13;;;5.90;99.90;;;;;;5084075;28;20207;-57
2022/01/18 01:48:09;;;;;;;12.30;4.50;;;5.90;99.90;;;;;;5084223;28;20259;-57
2022/01/18 01:51:21;;;;;;;10.07;4.60;;;5.60;99.90;;;;;;5084450;28;20320;-57
2022/01/18 01:53:28;;;;;;;11.67;5.20;;;5.40;99.90;;;;;;5077661;28;20670;-57
2022/01/18 01:55:55;;;;;;;10.43;4.90;;;5.20;99.90;;;;;;5083605;28;20314;-56
2022/01/18 01:58:24;;;;;;;14.50;4.80;;;5.10;99.90;;;;;;5086873;28;20588;-57
2022/01/18 02:00:57;;;;;;;13.97;5.23;;;5.20;99.90;;;;;;5085181;28;20214;-55
2022/01/18 02:03:25;;;;;;;14.40;4.80;;;5.30;99.90;;;;;;5083320;28;20646;-56
2022/01/18 02:05:52;;;;;;;14.43;4.80;;;5.30;99.90;;;;;;5082831;28;20197;-57
2022/01/18 02:08:20;;;;;;;11.90;4.93;;;5.50;99.90;;;;;;5081125;28;20245;-56
2022/01/18 02:10:47;;;;;;;12.03;5.17;;;5.50;99.90;;;;;;5082146;28;20207;-55
2022/01/18 02:13:15;;;;;;;15.17;5.73;;;5.50;99.90;;;;;;5079697;28;20264;-56
2022/01/18 02:23:58;;;;;;;16.37;6.47;;;5.70;99.90;;;;;;5082731;28;20292;-55
2022/01/18 02:26:25;;;;;;;25.17;7.10;;;5.70;99.90;;;;;;5078757;28;20234;-56
2022/01/18 02:28:52;;;;;;;24.50;7.70;;;5.70;99.90;;;;;;5082964;28;20248;-57
2022/01/18 02:31:20;;;;;;;21.40;7.07;;;5.80;99.90;;;;;;5084753;28;20213;-57
2022/01/18 02:33:46;;;;;;;20.43;6.87;;;5.70;99.90;;;;;;5082996;28;20207;-56
2022/01/18 02:36:13;;;;;;;21.90;6.50;;;5.60;99.90;;;;;;5081991;28;20650;-57
2022/01/18 02:38:40;;;;;;;17.03;6.57;;;5.50;99.90;;;;;;5083356;28;20258;-56
2022/01/18 02:41:07;;;;;;;24.70;7.17;;;5.60;99.90;;;;;;5083340;28;20208;-57
2022/01/18 02:43:46;;;;;;;20.20;6.90;;;5.60;99.90;;;;;;5083155;28;20334;-57
2022/01/18 02:46:13;;;;;;;13.17;6.50;;;5.80;99.90;;;;;;5081085;28;20689;-57
2022/01/18 02:48:40;;;;;;;21.40;7.00;;;5.90;99.90;;;;;;5083657;28;20209;-57
2022/01/18 02:51:07;;;;;;;18.00;6.43;;;5.70;99.90;;;;;;5081077;28;20227;-58
2022/01/18 02:54:01;;;;;;;22.07;6.27;;;5.70;99.90;;;;;;5077291;28;20207;-56
2022/01/18 02:56:32;;;;;;;28.57;6.77;;;5.60;99.90;;;;;;5082461;28;20222;-56
2022/01/18 02:59:16;;;;;;;18.50;6.70;;;5.50;99.90;;;;;;5081978;28;20285;-57
2022/01/18 03:04:29;;;;;;;22.77;6.90;;;5.40;99.90;;;;;;5083173;28;20614;-57
2022/01/18 03:06:56;;;;;;;20.93;7.33;;;5.40;99.90;;;;;;5080844;28;20313;-56
2022/01/18 03:09:23;;;;;;;24.33;6.90;;;5.30;99.90;;;;;;5082564;28;20223;-58
2022/01/18 03:11:50;;;;;;;19.80;6.90;;;5.40;99.90;;;;;;5082156;28;20295;-61
2022/01/18 03:14:16;;;;;;;23.70;6.50;;;5.40;99.90;;;;;;5083093;28;20246;-56
2022/01/18 03:16:43;;;;;;;15.63;6.40;;;5.30;99.90;;;;;;5083329;28;20202;-56
2022/01/18 03:19:10;;;;;;;13.63;6.47;;;5.10;99.90;;;;;;5081533;28;20230;-57
2022/01/18 03:21:37;;;;;;;17.87;6.60;;;5.20;99.90;;;;;;5080741;28;20207;-56
2022/01/18 03:29:35;;;;;;;20.50;6.97;;;5.40;99.90;;;;;;5083331;28;20202;-56
2022/01/18 03:32:03;;;;;;;16.50;5.87;;;5.40;99.90;;;;;;5080501;28;20203;-57
2022/01/18 03:34:30;;;;;;;17.87;7.57;;;5.40;99.90;;;;;;5080788;28;20617;-56
2022/01/18 03:36:57;;;;;;;16.47;5.87;;;5.30;99.90;;;;;;5083718;28;20199;-56
2022/01/18 03:39:24;;;;;;;12.13;5.87;;;5.30;99.90;;;;;;5080567;28;20203;-53
2022/01/18 03:41:55;;;;;;;10.73;5.33;;;5.30;99.90;;;;;;5081810;28;20294;-56
2022/01/18 03:44:25;;;;;;;10.50;6.07;;;5.40;99.90;;;;;;5081026;28;20223;-55
2022/01/18 03:46:53;;;;;;;17.17;6.20;;;5.40;99.90;;;;;;5079366;28;20299;-58
2022/01/18 03:49:23;;;;;;;12.13;6.27;;;5.50;99.90;;;;;;5081109;28;20771;-57
2022/01/18 03:51:50;;;;;;;11.40;6.60;;;5.50;99.90;;;;;;5083866;28;20374;-56
2022/01/18 03:54:22;;;;;;;11.83;6.13;;;5.60;99.90;;;;;;5081293;28;20202;-55
2022/01/18 03:56:49;;;;;;;15.33;6.67;;;5.60;99.90;;;;;;5081451;28;20298;-57
2022/01/18 03:59:16;;;;;;;11.43;5.60;;;5.60;99.90;;;;;;5083057;28;20248;-57
2022/01/18 04:01:43;;;;;;;10.87;5.77;;;5.80;99.90;;;;;;5081070;28;20345;-58
2022/01/18 04:04:12;;;;;;;12.57;6.00;;;5.80;99.90;;;;;;5081470;28;20306;-57
2022/01/18 04:06:39;;;;;;;9.27;5.47;;;6.00;99.90;;;;;;5080473;28;20680;-56
2022/01/18 04:09:06;;;;;;;8.77;5.43;;;6.10;99.90;;;;;;5081371;28;20347;-56
2022/01/18 04:11:33;;;;;;;8.40;5.00;;;6.00;99.90;;;;;;5083008;28;20199;-57
2022/01/18 04:13:59;;;;;;;10.67;6.00;;;6.10;99.90;;;;;;5082476;28;20227;-58
2022/01/18 04:16:26;;;;;;;13.30;6.13;;;6.10;99.90;;;;;;5079604;28;20300;-58
2022/01/18 04:19:23;;;;;;;10.90;5.20;;;6.20;99.90;;;;;;5082237;28;20252;-57
2022/01/18 04:27:13;;;;;;;11.17;5.27;;;6.10;99.90;;;;;;5081273;28;20304;-57
2022/01/18 04:29:40;;;;;;;9.77;5.33;;;6.10;99.90;;;;;;5081270;28;20640;-57
2022/01/18 04:32:07;;;;;;;11.70;5.57;;;6.20;99.90;;;;;;5083709;28;20209;-57
2022/01/18 04:34:36;;;;;;;11.27;6.33;;;6.20;99.90;;;;;;5079498;28;20215;-58
2022/01/18 04:37:03;;;;;;;16.43;7.83;;;6.30;99.90;;;;;;5079331;28;20229;-56
2022/01/18 04:39:36;;;;;;;16.43;8.13;;;6.40;99.90;;;;;;5080134;28;20266;-55
2022/01/18 04:42:04;;;;;;;16.53;8.07;;;6.40;99.90;;;;;;5080950;28;20664;-57
2022/01/18 04:49:52;;;;;;;22.83;9.47;;;6.40;99.90;;;;;;5081412;28;20226;-57
2022/01/18 04:52:19;;;;;;;21.90;9.63;;;6.40;99.90;;;;;;5063598;28;20210;-57
2022/01/18 04:54:57;;;;;;;23.53;8.47;;;6.40;99.90;;;;;;5080164;28;20263;-55
2022/01/18 04:59:50;;;;;;;19.13;9.10;;;6.40;99.90;;;;;;5083306;28;20208;-54
2022/01/18 05:02:17;;;;;;;18.67;8.50;;;6.30;99.90;;;;;;5084606;28;20242;-58
2022/01/18 05:04:44;;;;;;;15.73;6.77;;;6.40;99.90;;;;;;5084203;28;20580;-56
2022/01/18 05:07:14;;;;;;;18.90;7.03;;;6.30;99.90;;;;;;5084482;28;22495;-56
2022/01/18 05:09:42;;;;;;;14.10;6.27;;;6.40;99.90;;;;;;5085678;28;20323;-56
2022/01/18 05:12:17;;;;;;;14.30;5.93;;;6.40;99.90;;;;;;5085892;28;20697;-57
2022/01/18 05:14:45;;;;;;;10.77;5.43;;;6.50;99.90;;;;;;5084500;28;20823;-57
2022/01/18 05:19:45;;;;;;;14.83;5.17;;;5.90;99.90;;;;;;5083864;28;20211;-59
2022/01/18 05:24:57;;;;;;;13.50;5.10;;;5.80;99.90;;;;;;5085227;28;20959;-58
2022/01/18 05:27:24;;;;;;;11.70;5.30;;;5.80;99.90;;;;;;5085533;28;20299;-57
2022/01/18 05:29:51;;;;;;;13.70;5.70;;;5.80;99.90;;;;;;5085715;28;20284;-57
2022/01/18 05:32:18;;;;;;;13.40;5.07;;;5.80;99.90;;;;;;5082486;28;20327;-58
2022/01/18 05:34:48;;;;;;;15.43;5.50;;;5.70;99.90;;;;;;5084290;28;21633;-58
2022/01/18 05:37:16;;;;;;;14.37;4.50;;;5.50;99.90;;;;;;5082461;28;20203;-58
2022/01/18 05:39:43;;;;;;;14.83;4.83;;;5.40;99.90;;;;;;5081776;28;20225;-58
2022/01/18 05:42:10;;;;;;;13.10;4.57;;;5.30;99.90;;;;;;5082521;28;20217;-58
2022/01/18 05:44:37;;;;;;;16.80;5.20;;;5.30;99.90;;;;;;5084137;28;20234;-57
2022/01/18 05:47:04;;;;;;;12.57;4.40;;;5.40;99.90;;;;;;5083456;28;20212;-58
2022/01/18 05:49:31;;;;;;;12.33;4.30;;;5.40;99.90;;;;;;5082980;28;20288;-55
2022/01/18 05:51:58;;;;;;;13.20;4.67;;;5.40;99.90;;;;;;5084591;28;20234;-57
2022/01/18 05:54:25;;;;;;;15.97;4.77;;;5.40;99.90;;;;;;5083175;28;20575;-57
2022/01/18 05:56:51;;;;;;;17.57;4.90;;;5.30;99.90;;;;;;5083850;28;20227;-58
2022/01/18 05:59:23;;;;;;;17.90;4.23;;;5.20;99.90;;;;;;5084597;28;20244;-58
2022/01/18 06:02:01;;;;;;;18.93;5.07;;;5.20;99.90;;;;;;5081808;28;20216;-56
2022/01/18 06:07:13;;;;;;;20.30;4.30;;;5.10;99.90;;;;;;5082838;28;20206;-59
2022/01/18 06:09:40;;;;;;;16.50;4.20;;;5.10;99.90;;;;;;5082761;28;20268;-58
2022/01/18 06:12:08;;;;;;;19.83;5.23;;;5.10;99.90;;;;;;5080239;28;20225;-58
2022/01/18 06:14:34;;;;;;;18.13;5.20;;;5.20;99.90;;;;;;5083106;28;20719;-55
2022/01/18 06:17:01;;;;;;;18.13;4.50;;;5.30;99.90;;;;;;5082298;28;20582;-58
2022/01/18 06:19:28;;;;;;;15.43;4.87;;;5.30;99.90;;;;;;5084220;28;20200;-57
2022/01/18 06:21:55;;;;;;;19.87;5.00;;;5.40;99.90;;;;;;5082084;28;20294;-57
2022/01/18 06:24:22;;;;;;;21.33;5.13;;;5.30;99.90;;;;;;5081074;28;20241;-56
2022/01/18 06:27:05;;;;;;;18.23;5.00;;;5.40;99.90;;;;;;5081197;28;20200;-58
2022/01/18 06:29:32;;;;;;;13.90;5.27;;;5.50;99.90;;;;;;5083323;28;20218;-57
2022/01/18 06:31:59;;;;;;;11.93;4.50;;;5.60;99.90;;;;;;5085269;28;20206;-57
2022/01/18 06:34:26;;;;;;;12.20;4.93;;;5.70;99.90;;;;;;5086380;28;20209;-57
2022/01/18 06:36:53;;;;;;;12.83;5.23;;;5.70;99.90;;;;;;5085799;28;20209;-58
2022/01/18 06:39:19;;;;;;;16.63;5.50;;;5.80;99.90;;;;;;5083081;28;20257;-57
2022/01/18 06:41:46;;;;;;;15.83;4.83;;;5.80;99.90;;;;;;5079835;28;20231;-57
2022/01/18 06:44:14;;;;;;;14.63;4.27;;;5.90;99.90;;;;;;5082507;28;20775;-57
2022/01/18 06:46:42;;;;;;;12.73;4.33;;;5.90;99.90;;;;;;5080294;28;20212;-58
2022/01/18 06:49:08;;;;;;;9.23;3.80;;;5.80;99.90;;;;;;5078696;28;20754;-58
2022/01/18 06:51:36;;;;;;;9.37;3.77;;;5.90;99.90;;;;;;5077831;28;20213;-56
2022/01/18 06:54:03;;;;;;;12.13;3.33;;;5.70;99.90;;;;;;5084820;28;20235;-57
2022/01/18 06:56:30;;;;;;;10.53;4.10;;;5.70;99.90;;;;;;5081705;28;20205;-58
2022/01/18 06:58:59;;;;;;;15.03;3.90;;;5.80;99.90;;;;;;5084274;28;20227;-59
2022/01/18 07:01:26;;;;;;;13.57;3.90;;;5.70;99.90;;;;;;5080767;28;20339;-60
2022/01/18 07:03:53;;;;;;;7.73;3.43;;;5.50;99.90;;;;;;5079529;28;20206;-58
2022/01/18 07:06:20;;;;;;;11.63;3.93;;;5.30;99.90;;;;;;5081092;28;20226;-56
2022/01/18 07:08:47;;;;;;;10.37;4.40;;;5.30;99.90;;;;;;5080470;28;21122;-54
2022/01/18 07:11:16;;;;;;;11.17;3.63;;;5.40;99.90;;;;;;5085067;28;20312;-57
2022/01/18 07:13:43;;;;;;;9.20;4.40;;;5.30;99.90;;;;;;5081936;28;20204;-56
2022/01/18 07:16:10;;;;;;;10.43;3.23;;;5.00;99.90;;;;;;5082567;28;20193;-58
2022/01/18 07:18:36;;;;;;;15.80;3.57;;;4.90;99.90;;;;;;5082284;28;20302;-57
2022/01/18 07:21:03;;;;;;;10.33;3.80;;;5.00;99.90;;;;;;5082395;28;20880;-57
2022/01/18 07:23:31;;;;;;;13.30;4.23;;;5.20;99.90;;;;;;5082176;28;20214;-58
2022/01/18 07:26:02;;;;;;;11.67;3.73;;;5.50;99.90;;;;;;5084817;28;21335;-57
2022/01/18 07:28:29;;;;;;;10.73;3.70;;;5.50;99.90;;;;;;5082677;28;20219;-62
2022/01/18 07:30:56;;;;;;;9.67;3.27;;;5.50;99.90;;;;;;5075994;28;20657;-58
2022/01/18 07:33:23;;;;;;;7.30;3.70;;;5.60;99.90;;;;;;5085002;28;20198;-59
2022/01/18 07:35:50;;;;;;;9.10;3.73;;;5.70;99.90;;;;;;5083124;28;20206;-58
2022/01/18 07:38:18;;;;;;;9.73;3.17;;;5.80;99.90;;;;;;5084136;28;20736;-58
2022/01/18 07:40:48;;;;;;;10.90;3.87;;;5.90;99.90;;;;;;5080821;28;20202;-59
2022/01/18 07:43:17;;;;;;;12.90;4.47;;;6.00;99.90;;;;;;5077132;28;21042;-58
2022/01/18 07:45:45;;;;;;;12.97;4.27;;;6.00;99.90;;;;;;5080949;28;20600;-56
2022/01/18 07:48:13;;;;;;;10.10;4.23;;;6.00;99.90;;;;;;5083443;28;20676;-57
2022/01/18 07:50:41;;;;;;;11.43;4.00;;;6.00;99.90;;;;;;5081419;28;20616;-57
2022/01/18 07:53:08;;;;;;;12.07;4.13;;;5.90;99.90;;;;;;5085017;28;20203;-58
2022/01/18 07:55:35;;;;;;;9.83;4.07;;;5.80;99.90;;;;;;5082825;28;20227;-56
2022/01/18 07:58:02;;;;;;;9.53;3.50;;;5.50;99.90;;;;;;5082088;28;20207;-57
2022/01/18 08:00:29;;;;;;;10.73;3.73;;;5.60;99.90;;;;;;5084891;28;20270;-57
2022/01/18 08:02:56;;;;;;;12.23;3.97;;;5.60;99.90;;;;;;5078878;28;20285;-54
2022/01/18 08:05:23;;;;;;;12.90;2.93;;;5.60;99.90;;;;;;5075605;28;20239;-56
2022/01/18 08:07:50;;;;;;;10.70;2.93;;;5.50;99.90;;;;;;5080148;28;20552;-57
2022/01/18 08:10:18;;;;;;;13.20;3.60;;;5.40;99.90;;;;;;5077305;28;20642;-58
2022/01/18 08:12:46;;;;;;;17.07;3.30;;;5.30;99.90;;;;;;5083745;28;20209;-57
2022/01/18 08:15:17;;;;;;;10.17;2.87;;;5.30;99.90;;;;;;5081297;28;20240;-58
2022/01/18 08:17:52;;;;;;;8.37;3.10;;;5.40;99.90;;;;;;5080554;28;20218;-57
2022/01/18 08:20:21;;;;;;;12.13;4.13;;;5.70;99.90;;;;;;5081953;28;20224;-57
2022/01/18 08:22:48;;;;;;;11.93;3.50;;;5.90;99.90;;;;;;5084699;28;20205;-56
2022/01/18 08:25:16;;;;;;;9.50;4.03;;;5.90;99.90;;;;;;5080694;28;20670;-58
2022/01/18 08:27:45;;;;;;;13.60;3.77;;;6.00;99.90;;;;;;5084710;28;20202;-58
2022/01/18 08:30:16;;;;;;;12.70;3.93;;;6.00;99.90;;;;;;5079865;28;20195;-57
2022/01/18 08:32:45;;;;;;;16.23;4.30;;;6.00;99.90;;;;;;5081507;28;20672;-58
2022/01/18 08:35:12;;;;;;;9.17;3.50;;;5.60;99.90;;;;;;5081003;28;20630;-59
2022/01/18 08:37:39;;;;;;;9.33;2.90;;;5.80;99.90;;;;;;5082495;28;20580;-58
2022/01/18 08:40:06;;;;;;;12.03;4.03;;;5.70;99.90;;;;;;5081093;28;20241;-58
2022/01/18 08:42:33;;;;;;;8.07;2.97;;;5.80;99.90;;;;;;5082729;28;20351;-57
2022/01/18 08:45:03;;;;;;;8.57;3.53;;;5.60;99.90;;;;;;5082809;28;20700;-56
2022/01/18 08:47:30;;;;;;;10.27;3.10;;;5.50;99.90;;;;;;5084358;28;20226;-58
2022/01/18 08:49:57;;;;;;;8.20;2.97;;;5.40;99.90;;;;;;5084873;28;20297;-58
2022/01/18 08:52:24;;;;;;;12.70;3.87;;;5.70;99.90;;;;;;5085674;28;20200;-57
2022/01/18 08:54:51;;;;;;;11.33;3.20;;;6.00;99.90;;;;;;5085803;28;20848;-55
2022/01/18 08:57:18;;;;;;;11.93;3.43;;;5.70;99.90;;;;;;5076304;28;20227;-58
2022/01/18 08:59:45;;;;;;;16.53;4.60;;;5.50;99.90;;;;;;5076542;28;20595;-56
2022/01/18 09:02:13;;;;;;;10.60;3.27;;;5.50;99.90;;;;;;5081355;28;20263;-56
2022/01/18 09:04:40;;;;;;;9.23;3.93;;;5.60;99.90;;;;;;5080510;28;20208;-57
2022/01/18 09:07:09;;;;;;;11.60;3.23;;;5.90;99.90;;;;;;5081557;28;20732;-57
2022/01/18 09:09:39;;;;;;;10.30;3.13;;;6.00;99.90;;;;;;5080469;28;20279;-56
2022/01/18 09:12:11;;;;;;;13.47;3.67;;;6.00;99.90;;;;;;5083247;28;20199;-58
2022/01/18 09:14:38;;;;;;;9.90;2.93;;;6.00;99.90;;;;;;5079569;28;20197;-58
2022/01/18 09:17:06;;;;;;;11.33;4.13;;;6.00;99.90;;;;;;5078867;28;20589;-56
2022/01/18 09:19:33;;;;;;;12.00;4.40;;;6.10;99.90;;;;;;5079992;28;20200;-58
2022/01/18 09:22:03;;;;;;;10.13;4.17;;;6.30;99.90;;;;;;5082614;28;20236;-58
2022/01/18 09:24:30;;;;;;;12.20;4.70;;;6.50;99.90;;;;;;5081375;28;20210;-56
2022/01/18 09:26:58;;;;;;;11.00;4.17;;;6.40;99.90;;;;;;5081002;28;20296;-57
2022/01/18 09:29:24;;;;;;;10.87;3.83;;;6.40;99.90;;;;;;5079820;28;20208;-58
2022/01/18 09:31:51;;;;;;;17.97;5.03;;;6.10;99.90;;;;;;5082913;28;20662;-57
2022/01/18 09:34:19;;;;;;;11.07;3.67;;;6.10;99.90;;;;;;5081496;28;20208;-58
2022/01/18 09:36:45;;;;;;;14.97;4.80;;;5.90;99.90;;;;;;5082533;28;20228;-57
2022/01/18 09:39:12;;;;;;;9.33;4.23;;;5.80;99.90;;;;;;5082898;28;20683;-62
2022/01/18 09:41:41;;;;;;;15.43;4.00;;;5.70;99.90;;;;;;5083487;28;20261;-57
2022/01/18 09:44:09;;;;;;;11.13;4.27;;;5.60;99.90;;;;;;5080165;28;20245;-57
2022/01/18 09:46:36;;;;;;;17.30;5.00;;;5.80;99.90;;;;;;5081188;28;20204;-56
2022/01/18 09:49:05;;;;;;;14.07;4.53;;;5.80;99.90;;;;;;5084672;28;20334;-55
2022/01/18 09:51:32;;;;;;;13.50;5.20;;;5.90;99.90;;;;;;5082582;28;20789;-58
2022/01/18 09:53:59;;;;;;;13.77;4.93;;;6.00;99.90;;;;;;5087683;28;20265;-57
2022/01/18 09:56:31;;;;;;;14.83;5.83;;;6.10;99.90;;;;;;5085446;28;20222;-57
2022/01/18 09:58:58;;;;;;;19.47;5.77;;;6.20;99.90;;;;;;5083220;28;20204;-57
2022/01/18 10:01:25;;;;;;;17.03;6.50;;;6.10;99.90;;;;;;5083821;28;20204;-57
2022/01/18 10:04:17;;;;;;;18.07;7.17;;;6.10;99.90;;;;;;5082198;28;20256;-57
2022/01/18 10:06:53;;;;;;;16.10;6.40;;;6.10;99.90;;;;;;5084578;28;20214;-57
2022/01/18 10:09:21;;;;;;;18.10;8.10;;;6.20;99.90;;;;;;5083295;28;20322;-57
2022/01/18 10:12:11;;;;;;;18.17;7.73;;;6.20;99.90;;;;;;5073860;28;20228;-54
2022/01/18 10:14:56;;;;;;;17.80;6.83;;;6.50;99.90;;;;;;5081679;28;20224;-57
2022/01/18 10:17:32;;;;;;;17.83;7.80;;;6.60;99.90;;;;;;5087156;28;20441;-57
2022/01/18 10:20:06;;;;;;;21.30;7.80;;;6.90;99.90;;;;;;5085610;28;20201;-56
2022/01/18 10:22:40;;;;;;;18.30;8.40;;;6.80;99.90;;;;;;5085338;28;20233;-56
2022/01/18 10:25:17;;;;;;;21.03;8.83;;;7.00;99.90;;;;;;5083520;28;20349;-57
2022/01/18 10:27:47;;;;;;;18.27;8.47;;;7.10;99.90;;;;;;5084769;28;20301;-58
2022/01/18 10:30:21;;;;;;;17.83;8.53;;;7.20;99.90;;;;;;5086775;28;20207;-57
2022/01/18 10:33:09;;;;;;;20.60;9.23;;;7.20;99.90;;;;;;5085103;28;20211;-57
2022/01/18 10:35:56;;;;;;;23.27;8.53;;;7.20;99.90;;;;;;5086009;28;20291;-57
2022/01/18 10:38:23;;;;;;;25.87;8.80;;;7.20;99.90;;;;;;5083709;28;20202;-57
2022/01/18 10:40:50;;;;;;;23.30;8.23;;;7.40;99.90;;;;;;5083833;28;20297;-57
2022/01/18 10:43:32;;;;;;;22.50;9.47;;;7.50;99.90;;;;;;5082286;28;20222;-58
2022/01/18 10:46:32;;;;;;;23.33;8.27;;;7.70;99.90;;;;;;5078089;28;20198;-58
2022/01/18 10:48:59;;;;;;;19.50;8.63;;;7.50;99.90;;;;;;5067751;28;20797;-58
2022/01/18 10:51:31;;;;;;;19.77;7.90;;;7.80;99.90;;;;;;5084833;28;20323;-57
2022/01/18 10:54:04;;;;;;;23.47;9.47;;;7.80;99.90;;;;;;5082863;28;20293;-58
2022/01/18 10:56:39;;;;;;;23.03;8.70;;;7.80;99.90;;;;;;5082082;28;20194;-56
2022/01/18 10:59:08;;;;;;;20.37;9.23;;;7.70;99.90;;;;;;5083308;28;20263;-58
2022/01/18 11:01:35;;;;;;;23.63;8.90;;;7.60;99.90;;;;;;5083513;28;20203;-57
2022/01/18 11:04:11;;;;;;;21.10;8.17;;;7.70;99.90;;;;;;5086439;28;20252;-57
2022/01/18 11:06:39;;;;;;;25.00;8.57;;;8.00;99.90;;;;;;5078901;28;20202;-59
2022/01/18 11:09:12;;;;;;;18.87;8.10;;;7.90;99.90;;;;;;5071776;28;20324;-59
2022/01/18 11:11:44;;;;;;;21.47;8.20;;;8.00;99.90;;;;;;5077807;28;20678;-59
2022/01/18 11:14:17;;;;;;;24.37;8.70;;;8.00;99.90;;;;;;5084741;28;20222;-58
2022/01/18 11:16:45;;;;;;;29.80;8.97;;;8.10;99.90;;;;;;5080365;28;20306;-58
2022/01/18 11:21:50;;;;;;;29.10;8.70;;;8.00;99.90;;;;;;5087060;28;20752;-58
2022/01/18 11:24:19;;;;;;;23.33;7.30;;;8.00;99.90;;;;;;5085868;28;20218;-61
2022/01/18 11:26:47;;;;;;;23.90;7.47;;;7.90;99.90;;;;;;5084129;28;20200;-58
2022/01/18 11:29:17;;;;;;;21.13;7.13;;;7.90;99.90;;;;;;5082951;28;20246;-58
2022/01/18 11:31:49;;;;;;;26.20;8.57;;;7.70;99.90;;;;;;5080413;28;20227;-58
2022/01/18 11:34:49;;;;;;;18.40;6.77;;;7.80;99.90;;;;;;5077013;28;20249;-58
2022/01/18 11:37:40;;;;;;;15.73;6.70;;;8.00;99.90;;;;;;5057198;28;20225;-58
2022/01/18 11:40:09;;;;;;;17.40;6.73;;;7.90;99.90;;;;;;5075967;28;20319;-57
2022/01/18 11:42:42;;;;;;;18.40;6.70;;;7.70;99.90;;;;;;5079113;28;20915;-58
2022/01/18 11:45:24;;;;;;;22.60;7.47;;;7.80;99.90;;;;;;5077688;28;20321;-56
2022/01/18 11:48:15;;;;;;;22.40;6.73;;;8.10;99.90;;;;;;5079346;28;20218;-58
2022/01/18 11:50:45;;;;;;;17.17;6.23;;;8.30;99.90;;;;;;5075077;28;20356;-57
2022/01/18 11:53:46;;;;;;;19.57;6.70;;;8.30;99.90;;;;;;5078602;28;20218;-58
2022/01/18 11:56:30;;;;;;;14.63;5.90;;;8.20;99.90;;;;;;5078655;28;20291;-59
2022/01/18 11:59:17;;;;;;;15.77;6.20;;;8.10;99.90;;;;;;5075394;28;20683;-57
2022/01/18 12:01:58;;;;;;;20.87;6.63;;;8.10;99.90;;;;;;5079797;28;21408;-59
2022/01/18 12:07:08;;;;;;;12.30;5.13;;;8.70;99.90;;;;;;5083032;28;20231;-57
2022/01/18 12:09:40;;;;;;;19.57;6.97;;;8.80;99.90;;;;;;5080695;28;20223;-58
2022/01/18 12:12:50;;;;;;;20.10;6.50;;;9.40;99.90;;;;;;5081140;28;20712;-57
2022/01/18 12:15:18;;;;;;;23.20;5.43;;;9.40;99.90;;;;;;5081830;28;20276;-58
2022/01/18 12:17:56;;;;;;;21.30;7.00;;;9.60;99.90;;;;;;5082140;28;20204;-58
2022/01/18 12:20:35;;;;;;;18.03;7.57;;;9.70;99.90;;;;;;5076799;28;20199;-58
2022/01/18 12:23:12;;;;;;;19.93;6.17;;;10.40;99.90;;;;;;5082635;28;20215;-58
2022/01/18 12:26:03;;;;;;;17.47;6.20;;;10.80;99.90;;;;;;5080141;28;20271;-59
2022/01/18 12:31:54;;;;;;;16.27;5.03;;;11.20;99.90;;;;;;5081590;28;20207;-58
2022/01/18 12:34:30;;;;;;;16.90;4.77;;;11.20;99.90;;;;;;5080545;28;20201;-58
2022/01/18 12:36:59;;;;;;;16.67;5.00;;;11.30;99.90;;;;;;5076008;28;20197;-57
2022/01/18 12:39:26;;;;;;;15.40;5.37;;;11.50;99.90;;;;;;5078178;28;20300;-58
2022/01/18 12:41:56;;;;;;;11.10;4.77;;;11.50;99.90;;;;;;5080413;28;20304;-59
2022/01/18 12:44:23;;;;;;;17.23;5.13;;;11.70;99.90;;;;;;5076287;28;20230;-58
2022/01/18 12:46:56;;;;;;;21.07;6.60;;;11.50;99.90;;;;;;5059554;28;20236;-58
2022/01/18 12:49:23;;;;;;;16.83;5.87;;;11.50;99.90;;;;;;5076886;28;20229;-58
2022/01/18 12:52:10;;;;;;;16.80;7.00;;;11.40;99.90;;;;;;5074835;28;20661;-58
2022/01/18 12:54:40;;;;;;;16.43;6.30;;;11.40;99.90;;;;;;5079543;28;20307;-58
2022/01/18 12:57:21;;;;;;;19.23;5.63;;;11.00;99.90;;;;;;5057681;28;20202;-57
2022/01/18 13:00:06;;;;;;;20.00;6.13;;;10.50;99.90;;;;;;5075742;28;20217;-58
2022/01/18 13:02:33;;;;;;;20.97;6.77;;;10.80;99.90;;;;;;5063269;28;20202;-58
2022/01/18 13:05:03;;;;;;;17.37;6.47;;;11.30;99.90;;;;;;5079921;28;20209;-57
2022/01/18 13:07:30;;;;;;;18.23;5.43;;;11.20;99.90;;;;;;5079614;28;20812;-56
2022/01/18 13:10:04;;;;;;;15.67;5.50;;;11.00;99.90;;;;;;5073081;28;20237;-59
2022/01/18 13:12:39;;;;;;;16.37;5.87;;;10.90;99.90;;;;;;5078317;28;20198;-58
2022/01/18 13:15:08;;;;;;;21.77;5.50;;;10.20;99.90;;;;;;5077346;28;21342;-57
2022/01/18 13:23:56;;;;;;;19.40;5.93;;;10.20;99.90;;;;;;5079032;28;20320;-56
2022/01/18 13:26:14;;;;;;;19.23;6.13;;;10.20;99.90;;;;;;5079854;28;20241;-59
2022/01/18 13:28:41;;;;;;;20.97;6.20;;;10.30;99.90;;;;;;5065175;28;20205;-58
2022/01/18 13:31:24;;;;;;;19.80;6.30;;;10.10;99.90;;;;;;5085573;28;20244;-58
2022/01/18 13:34:00;;;;;;;18.90;6.20;;;10.00;99.90;;;;;;5081401;28;20256;-57
2022/01/18 13:36:32;;;;;;;20.27;6.80;;;10.10;99.90;;;;;;5082800;28;20287;-59
2022/01/18 13:39:21;;;;;;;21.37;6.17;;;10.20;99.90;;;;;;5082006;28;20293;-57
2022/01/18 13:41:48;;;;;;;27.00;6.87;;;9.90;99.90;;;;;;5078091;28;20369;-58
2022/01/18 13:44:15;;;;;;;13.83;5.60;;;10.10;99.90;;;;;;5078778;28;20252;-58
2022/01/18 13:46:42;;;;;;;17.80;6.60;;;10.20;99.90;;;;;;5080388;28;21005;-58
2022/01/18 13:49:13;;;;;;;16.23;6.20;;;10.20;99.90;;;;;;5079481;28;20293;-59
2022/01/18 13:51:59;;;;;;;20.47;6.73;;;10.20;99.90;;;;;;5076334;28;20670;-59
2022/01/18 13:54:28;;;;;;;17.90;5.60;;;10.60;99.90;;;;;;5077477;28;20844;-58
2022/01/18 13:56:56;;;;;;;21.27;7.07;;;10.70;99.90;;;;;;5082456;28;20209;-57
2022/01/18 13:59:27;;;;;;;19.40;5.50;;;10.60;99.90;;;;;;5081818;28;20640;-57
2022/01/18 14:01:54;;;;;;;17.80;6.50;;;11.10;99.90;;;;;;5079552;28;20248;-56
2022/01/18 14:04:23;;;;;;;20.23;7.20;;;10.80;99.90;;;;;;5077862;28;20206;-59
2022/01/18 14:06:51;;;;;;;16.17;5.70;;;10.90;99.90;;;;;;5077374;28;20230;-55
2022/01/18 14:09:22;;;;;;;19.53;6.80;;;11.20;99.90;;;;;;5076381;28;20227;-57
2022/01/18 14:11:55;;;;;;;16.43;5.87;;;11.30;99.90;;;;;;5076979;28;20208;-57
2022/01/18 14:14:30;;;;;;;16.27;6.23;;;11.30;99.90;;;;;;5074436;28;20198;-56
2022/01/18 14:17:02;;;;;;;17.20;6.53;;;11.30;99.90;;;;;;5081338;28;20201;-58
2022/01/18 14:19:34;;;;;;;17.10;5.47;;;11.20;99.90;;;;;;5080847;28;20220;-58
2022/01/18 14:22:11;;;;;;;14.80;5.90;;;11.00;99.90;;;;;;5076158;28;20268;-57
2022/01/18 14:24:40;;;;;;;16.60;5.57;;;11.20;99.90;;;;;;5076036;28;20210;-58
2022/01/18 14:27:15;;;;;;;16.17;6.13;;;10.80;99.90;;;;;;5062644;28;20572;-57
2022/01/18 14:29:42;;;;;;;15.70;5.40;;;10.70;99.90;;;;;;5084959;28;20237;-55
2022/01/18 14:32:13;;;;;;;18.97;6.40;;;10.50;99.90;;;;;;5083477;28;20209;-58
2022/01/18 14:34:41;;;;;;;15.90;6.37;;;10.80;99.90;;;;;;5078982;28;20289;-58